Terminal Aerodrome Forecast
Issued by NWS Dodge City, KS

Home | Current Version | Previous Version | Text Only | Print | Product List | Glossary On
Versions: 1 2 3 4 5 6 7 8 9 10 11 12 13 14 15 16 17 18 19 20 21 22
000
FTUS43 KDDC 190520
TAFDDC
TAF
KDDC 190520Z 1906/2006 18011KT P6SM BKN250
     FM191000 18009KT 3SM BR BKN015
      TEMPO 1911/1914 1SM BR BKN008
     FM191600 18011KT P6SM BKN035
     FM191800 16019G27KT P6SM BKN090=

USA.gov is the U.S. government's official web portal to all federal, state and local government web resources and services.